sensor_id;sensor_type;location;lat;lon;timestamp;temperature;humidity
35607;DHT22;21729;58.392;15.656;2023-03-11T00:02:17;-4.20;99.90
35607;DHT22;21729;58.392;15.656;2023-03-11T00:04:45;-4.20;99.90
35607;DHT22;21729;58.392;15.656;2023-03-11T00:07:12;-4.20;99.90
35607;DHT22;21729;58.392;15.656;2023-03-11T00:09:39;-3.90;99.90
35607;DHT22;21729;58.392;15.656;2023-03-11T00:12:07;-4.20;99.90
35607;DHT22;21729;58.392;15.656;2023-03-11T00:14:34;-4.20;99.90
35607;DHT22;21729;58.392;15.656;2023-03-11T00:17:01;-4.10;99.90
35607;DHT22;21729;58.392;15.656;2023-03-11T00:19:29;-4.10;99.90
35607;DHT22;21729;58.392;15.656;2023-03-11T00:21:56;-4.00;99.90
35607;DHT22;21729;58.392;15.656;2023-03-11T00:24:23;-4.00;99.90
35607;DHT22;21729;58.392;15.656;2023-03-11T00:26:50;-4.20;99.90
35607;DHT22;21729;58.392;15.656;2023-03-11T00:29:17;-4.20;99.90
35607;DHT22;21729;58.392;15.656;2023-03-11T00:31:45;-4.30;99.90
35607;DHT22;21729;58.392;15.656;2023-03-11T00:34:12;-4.40;99.90
35607;DHT22;21729;58.392;15.656;2023-03-11T00:36:40;-4.30;99.90
35607;DHT22;21729;58.392;15.656;2023-03-11T00:39:07;-4.50;99.90
35607;DHT22;21729;58.392;15.656;2023-03-11T00:41:36;-4.60;99.90
35607;DHT22;21729;58.392;15.656;2023-03-11T00:44:03;-4.60;99.90
35607;DHT22;21729;58.392;15.656;2023-03-11T00:46:30;-4.50;99.90
35607;DHT22;21729;58.392;15.656;2023-03-11T00:48:57;-4.50;99.90
35607;DHT22;21729;58.392;15.656;2023-03-11T00:51:24;-4.50;99.90
35607;DHT22;21729;58.392;15.656;2023-03-11T00:53:54;-4.50;99.90
35607;DHT22;21729;58.392;15.656;2023-03-11T00:56:21;-4.50;99.90
35607;DHT22;21729;58.392;15.656;2023-03-11T00:58:48;-4.50;99.90
35607;DHT22;21729;58.392;15.656;2023-03-11T01:01:18;-4.60;99.90
35607;DHT22;21729;58.392;15.656;2023-03-11T01:03:46;-4.50;99.90
35607;DHT22;21729;58.392;15.656;2023-03-11T01:06:13;-4.60;99.90
35607;DHT22;21729;58.392;15.656;2023-03-11T01:08:40;-4.60;99.90
35607;DHT22;21729;58.392;15.656;2023-03-11T01:11:09;-4.60;99.90
35607;DHT22;21729;58.392;15.656;2023-03-11T01:13:37;-4.60;99.90
35607;DHT22;21729;58.392;15.656;2023-03-11T01:16:05;-4.60;99.90
35607;DHT22;21729;58.392;15.656;2023-03-11T01:18:32;-4.60;99.90
35607;DHT22;21729;58.392;15.656;2023-03-11T01:20:59;-4.60;99.90
35607;DHT22;21729;58.392;15.656;2023-03-11T01:23:27;-4.50;99.90
35607;DHT22;21729;58.392;15.656;2023-03-11T01:25:54;-4.50;99.90
35607;DHT22;21729;58.392;15.656;2023-03-11T01:28:23;-4.50;99.90
35607;DHT22;21729;58.392;15.656;2023-03-11T01:30:50;-4.50;99.90
35607;DHT22;21729;58.392;15.656;2023-03-11T01:33:19;-4.60;99.90
35607;DHT22;21729;58.392;15.656;2023-03-11T01:35:46;-4.60;99.90
35607;DHT22;21729;58.392;15.656;2023-03-11T01:38:14;-4.60;99.90
35607;DHT22;21729;58.392;15.656;2023-03-11T01:40:43;-4.60;99.90
35607;DHT22;21729;58.392;15.656;2023-03-11T01:43:45;-4.60;99.90
35607;DHT22;21729;58.392;15.656;2023-03-11T01:46:15;-4.60;99.90
35607;DHT22;21729;58.392;15.656;2023-03-11T01:48:46;-4.60;99.90
35607;DHT22;21729;58.392;15.656;2023-03-11T01:51:17;-4.50;99.90
35607;DHT22;21729;58.392;15.656;2023-03-11T01:53:45;-4.50;99.90
35607;DHT22;21729;58.392;15.656;2023-03-11T01:56:13;-4.50;99.90
35607;DHT22;21729;58.392;15.656;2023-03-11T01:58:43;-4.50;99.90
35607;DHT22;21729;58.392;15.656;2023-03-11T02:01:13;-4.50;99.90
35607;DHT22;21729;58.392;15.656;2023-03-11T02:03:40;-4.40;99.90
35607;DHT22;21729;58.392;15.656;2023-03-11T02:06:10;-4.40;99.90
35607;DHT22;21729;58.392;15.656;2023-03-11T02:08:40;-4.40;99.90
35607;DHT22;21729;58.392;15.656;2023-03-11T02:11:09;-4.40;99.90
35607;DHT22;21729;58.392;15.656;2023-03-11T02:13:41;-4.40;99.90
35607;DHT22;21729;58.392;15.656;2023-03-11T02:16:09;-4.30;99.90
35607;DHT22;21729;58.392;15.656;2023-03-11T02:18:36;-4.40;99.90
35607;DHT22;21729;58.392;15.656;2023-03-11T02:21:10;-4.50;99.90
35607;DHT22;21729;58.392;15.656;2023-03-11T02:23:46;-4.50;99.90
35607;DHT22;21729;58.392;15.656;2023-03-11T02:26:20;-4.40;99.90
35607;DHT22;21729;58.392;15.656;2023-03-11T02:28:50;-4.40;99.90
35607;DHT22;21729;58.392;15.656;2023-03-11T02:31:18;-4.40;99.90
35607;DHT22;21729;58.392;15.656;2023-03-11T02:33:46;-4.50;99.90
35607;DHT22;21729;58.392;15.656;2023-03-11T02:36:39;-4.40;99.90
35607;DHT22;21729;58.392;15.656;2023-03-11T02:39:07;-4.40;99.90
35607;DHT22;21729;58.392;15.656;2023-03-11T02:41:37;-4.40;99.90
35607;DHT22;21729;58.392;15.656;2023-03-11T02:44:07;-4.40;99.90
35607;DHT22;21729;58.392;15.656;2023-03-11T02:46:36;-4.50;99.90
35607;DHT22;21729;58.392;15.656;2023-03-11T02:49:04;-4.50;99.90
35607;DHT22;21729;58.392;15.656;2023-03-11T02:51:32;-4.50;99.90
35607;DHT22;21729;58.392;15.656;2023-03-11T02:54:02;-4.40;99.90
35607;DHT22;21729;58.392;15.656;2023-03-11T02:56:30;-4.50;99.90
35607;DHT22;21729;58.392;15.656;2023-03-11T02:58:57;-4.40;99.90
35607;DHT22;21729;58.392;15.656;2023-03-11T03:01:26;-4.10;99.90
35607;DHT22;21729;58.392;15.656;2023-03-11T03:03:53;-4.40;99.90
35607;DHT22;21729;58.392;15.656;2023-03-11T03:06:21;-4.40;99.90
35607;DHT22;21729;58.392;15.656;2023-03-11T03:08:48;-4.50;99.90
35607;DHT22;21729;58.392;15.656;2023-03-11T03:11:15;-4.50;99.90
35607;DHT22;21729;58.392;15.656;2023-03-11T03:13:42;-4.60;99.90
35607;DHT22;21729;58.392;15.656;2023-03-11T03:16:09;-4.60;99.90
35607;DHT22;21729;58.392;15.656;2023-03-11T03:18:38;-4.60;99.90
35607;DHT22;21729;58.392;15.656;2023-03-11T03:21:05;-4.60;99.90
35607;DHT22;21729;58.392;15.656;2023-03-11T03:23:32;-4.50;99.90
35607;DHT22;21729;58.392;15.656;2023-03-11T03:26:00;-4.80;99.90
35607;DHT22;21729;58.392;15.656;2023-03-11T03:28:27;-4.70;99.90
35607;DHT22;21729;58.392;15.656;2023-03-11T03:30:54;-4.60;99.90
35607;DHT22;21729;58.392;15.656;2023-03-11T03:33:22;-4.60;99.90
35607;DHT22;21729;58.392;15.656;2023-03-11T03:35:50;-4.70;99.90
35607;DHT22;21729;58.392;15.656;2023-03-11T03:38:17;-4.70;99.90
35607;DHT22;21729;58.392;15.656;2023-03-11T03:40:45;-4.80;99.90
35607;DHT22;21729;58.392;15.656;2023-03-11T03:43:13;-4.80;99.90
35607;DHT22;21729;58.392;15.656;2023-03-11T03:45:40;-4.70;99.90
35607;DHT22;21729;58.392;15.656;2023-03-11T03:48:07;-4.80;99.90
35607;DHT22;21729;58.392;15.656;2023-03-11T03:50:35;-4.80;99.90
35607;DHT22;21729;58.392;15.656;2023-03-11T03:53:03;-4.80;99.90
35607;DHT22;21729;58.392;15.656;2023-03-11T03:55:30;-4.70;99.90
35607;DHT22;21729;58.392;15.656;2023-03-11T03:57:58;-4.70;99.90
35607;DHT22;21729;58.392;15.656;2023-03-11T04:00:25;-4.70;99.90
35607;DHT22;21729;58.392;15.656;2023-03-11T04:02:52;-4.80;99.90
35607;DHT22;21729;58.392;15.656;2023-03-11T04:05:19;-4.70;99.90
35607;DHT22;21729;58.392;15.656;2023-03-11T04:07:46;-4.80;99.90
35607;DHT22;21729;58.392;15.656;2023-03-11T04:10:15;-4.90;99.90
35607;DHT22;21729;58.392;15.656;2023-03-11T04:12:42;-4.90;99.90
35607;DHT22;21729;58.392;15.656;2023-03-11T04:15:10;-4.90;99.90
35607;DHT22;21729;58.392;15.656;2023-03-11T04:17:37;-5.00;99.90
35607;DHT22;21729;58.392;15.656;2023-03-11T04:20:05;-5.00;99.90
35607;DHT22;21729;58.392;15.656;2023-03-11T04:22:33;-5.00;99.90
35607;DHT22;21729;58.392;15.656;2023-03-11T04:25:01;-5.00;99.90
35607;DHT22;21729;58.392;15.656;2023-03-11T04:27:29;-5.10;99.90
35607;DHT22;21729;58.392;15.656;2023-03-11T04:29:56;-5.00;99.90
35607;DHT22;21729;58.392;15.656;2023-03-11T04:32:24;-5.00;99.90
35607;DHT22;21729;58.392;15.656;2023-03-11T04:34:51;-5.00;99.90
35607;DHT22;21729;58.392;15.656;2023-03-11T04:37:18;-5.00;99.90
35607;DHT22;21729;58.392;15.656;2023-03-11T04:39:45;-5.00;99.90
35607;DHT22;21729;58.392;15.656;2023-03-11T04:42:12;-4.90;99.90
35607;DHT22;21729;58.392;15.656;2023-03-11T04:44:41;-5.00;99.90
35607;DHT22;21729;58.392;15.656;2023-03-11T04:47:08;-5.10;99.90
35607;DHT22;21729;58.392;15.656;2023-03-11T04:49:35;-5.10;99.90
35607;DHT22;21729;58.392;15.656;2023-03-11T04:52:03;-5.10;99.90
35607;DHT22;21729;58.392;15.656;2023-03-11T04:54:31;-5.20;99.90
35607;DHT22;21729;58.392;15.656;2023-03-11T04:56:58;-5.20;99.90
35607;DHT22;21729;58.392;15.656;2023-03-11T04:59:25;-5.20;99.90
35607;DHT22;21729;58.392;15.656;2023-03-11T05:01:54;-5.20;99.90
35607;DHT22;21729;58.392;15.656;2023-03-11T05:04:21;-5.20;99.90
35607;DHT22;21729;58.392;15.656;2023-03-11T05:06:48;-5.20;99.90
35607;DHT22;21729;58.392;15.656;2023-03-11T05:09:16;-5.30;99.90
35607;DHT22;21729;58.392;15.656;2023-03-11T05:11:43;-4.90;99.90
35607;DHT22;21729;58.392;15.656;2023-03-11T05:14:10;-5.20;99.90
35607;DHT22;21729;58.392;15.656;2023-03-11T05:16:38;-5.20;99.90
35607;DHT22;21729;58.392;15.656;2023-03-11T05:19:06;-5.20;99.90
35607;DHT22;21729;58.392;15.656;2023-03-11T05:21:47;-5.20;99.90
35607;DHT22;21729;58.392;15.656;2023-03-11T05:24:14;-5.30;99.90
35607;DHT22;21729;58.392;15.656;2023-03-11T05:26:41;-5.40;99.90
35607;DHT22;21729;58.392;15.656;2023-03-11T05:29:09;-5.40;99.90
35607;DHT22;21729;58.392;15.656;2023-03-11T05:31:36;-5.40;99.90
35607;DHT22;21729;58.392;15.656;2023-03-11T05:34:03;-5.50;99.90
35607;DHT22;21729;58.392;15.656;2023-03-11T05:36:32;-5.60;99.90
35607;DHT22;21729;58.392;15.656;2023-03-11T05:38:59;-5.60;99.90
35607;DHT22;21729;58.392;15.656;2023-03-11T05:41:26;-5.60;99.90
35607;DHT22;21729;58.392;15.656;2023-03-11T05:43:53;-5.70;99.90
35607;DHT22;21729;58.392;15.656;2023-03-11T05:46:26;-5.70;99.90
35607;DHT22;21729;58.392;15.656;2023-03-11T05:48:54;-5.60;99.90
35607;DHT22;21729;58.392;15.656;2023-03-11T05:51:21;-5.60;99.90
35607;DHT22;21729;58.392;15.656;2023-03-11T05:53:54;-5.50;99.90
35607;DHT22;21729;58.392;15.656;2023-03-11T05:56:26;-5.70;99.90
35607;DHT22;21729;58.392;15.656;2023-03-11T05:58:56;-5.40;99.90
35607;DHT22;21729;58.392;15.656;2023-03-11T06:01:23;-5.40;99.90
35607;DHT22;21729;58.392;15.656;2023-03-11T06:03:50;-5.30;99.90
35607;DHT22;21729;58.392;15.656;2023-03-11T06:06:17;-5.40;99.90
35607;DHT22;21729;58.392;15.656;2023-03-11T06:08:45;-5.30;99.90
35607;DHT22;21729;58.392;15.656;2023-03-11T06:11:16;-5.40;99.90
35607;DHT22;21729;58.392;15.656;2023-03-11T06:13:43;-5.30;99.90
35607;DHT22;21729;58.392;15.656;2023-03-11T06:16:10;-5.30;99.90
35607;DHT22;21729;58.392;15.656;2023-03-11T06:18:38;-5.30;99.90
35607;DHT22;21729;58.392;15.656;2023-03-11T06:21:05;-5.20;99.90
35607;DHT22;21729;58.392;15.656;2023-03-11T06:23:33;-5.30;99.90
35607;DHT22;21729;58.392;15.656;2023-03-11T06:26:02;-5.20;99.90
35607;DHT22;21729;58.392;15.656;2023-03-11T06:28:31;-5.20;99.90
35607;DHT22;21729;58.392;15.656;2023-03-11T06:31:06;-5.20;99.90
35607;DHT22;21729;58.392;15.656;2023-03-11T06:33:33;-5.10;99.90
35607;DHT22;21729;58.392;15.656;2023-03-11T06:36:05;-5.10;99.70
35607;DHT22;21729;58.392;15.656;2023-03-11T06:38:32;-5.10;99.90
35607;DHT22;21729;58.392;15.656;2023-03-11T06:41:00;-5.10;70.20
35607;DHT22;21729;58.392;15.656;2023-03-11T06:43:30;-4.80;40.00
35607;DHT22;21729;58.392;15.656;2023-03-11T06:45:58;-4.80;62.00
35607;DHT22;21729;58.392;15.656;2023-03-11T06:48:27;-4.70;45.20
35607;DHT22;21729;58.392;15.656;2023-03-11T06:50:54;-4.50;16.70
35607;DHT22;21729;58.392;15.656;2023-03-11T06:53:22;-4.40;7.60
35607;DHT22;21729;58.392;15.656;2023-03-11T06:56:08;-4.30;1.00
35607;DHT22;21729;58.392;15.656;2023-03-11T06:58:38;-4.40;1.00
35607;DHT22;21729;58.392;15.656;2023-03-11T07:01:09;-4.20;1.00
35607;DHT22;21729;58.392;15.656;2023-03-11T07:03:36;-4.20;1.00
35607;DHT22;21729;58.392;15.656;2023-03-11T07:06:04;-4.30;1.00
35607;DHT22;21729;58.392;15.656;2023-03-11T07:08:31;-4.20;1.00
35607;DHT22;21729;58.392;15.656;2023-03-11T07:11:00;-4.00;1.00
35607;DHT22;21729;58.392;15.656;2023-03-11T07:13:27;-4.30;1.00
35607;DHT22;21729;58.392;15.656;2023-03-11T07:16:04;-4.00;1.00
35607;DHT22;21729;58.392;15.656;2023-03-11T07:18:32;-3.70;1.00
35607;DHT22;21729;58.392;15.656;2023-03-11T07:21:00;-3.50;1.00
35607;DHT22;21729;58.392;15.656;2023-03-11T07:23:28;-3.50;1.00
35607;DHT22;21729;58.392;15.656;2023-03-11T07:25:55;-3.50;1.00
35607;DHT22;21729;58.392;15.656;2023-03-11T07:28:22;-3.40;1.00
35607;DHT22;21729;58.392;15.656;2023-03-11T07:30:50;-3.30;1.00
35607;DHT22;21729;58.392;15.656;2023-03-11T07:33:20;-3.10;1.00
35607;DHT22;21729;58.392;15.656;2023-03-11T07:35:50;-3.10;1.00
35607;DHT22;21729;58.392;15.656;2023-03-11T07:38:17;-3.20;1.00
35607;DHT22;21729;58.392;15.656;2023-03-11T07:40:45;-3.20;1.00
35607;DHT22;21729;58.392;15.656;2023-03-11T07:43:13;-3.00;1.00
35607;DHT22;21729;58.392;15.656;2023-03-11T07:45:40;-2.60;1.00
35607;DHT22;21729;58.392;15.656;2023-03-11T07:48:07;-2.60;1.00
35607;DHT22;21729;58.392;15.656;2023-03-11T07:50:35;-2.20;1.00
35607;DHT22;21729;58.392;15.656;2023-03-11T07:53:04;-2.70;99.90
35607;DHT22;21729;58.392;15.656;2023-03-11T07:55:32;-2.60;99.90
35607;DHT22;21729;58.392;15.656;2023-03-11T07:57:59;-2.50;1.00
35607;DHT22;21729;58.392;15.656;2023-03-11T08:00:26;-2.60;1.00
35607;DHT22;21729;58.392;15.656;2023-03-11T08:02:53;-2.60;99.90
35607;DHT22;21729;58.392;15.656;2023-03-11T08:05:20;-2.80;99.90
35607;DHT22;21729;58.392;15.656;2023-03-11T08:07:49;-2.90;1.00
35607;DHT22;21729;58.392;15.656;2023-03-11T08:10:16;-2.60;1.00
35607;DHT22;21729;58.392;15.656;2023-03-11T08:12:43;-2.30;1.00
35607;DHT22;21729;58.392;15.656;2023-03-11T08:15:10;-1.80;1.00
35607;DHT22;21729;58.392;15.656;2023-03-11T08:17:37;-2.20;99.90
35607;DHT22;21729;58.392;15.656;2023-03-11T08:20:05;-2.00;99.90
35607;DHT22;21729;58.392;15.656;2023-03-11T08:22:34;-2.00;99.90
35607;DHT22;21729;58.392;15.656;2023-03-11T08:25:03;-1.90;99.90
35607;DHT22;21729;58.392;15.656;2023-03-11T08:27:30;-2.00;99.90
35607;DHT22;21729;58.392;15.656;2023-03-11T08:29:57;-2.40;1.00
35607;DHT22;21729;58.392;15.656;2023-03-11T08:32:25;-2.40;1.00
35607;DHT22;21729;58.392;15.656;2023-03-11T08:34:55;-2.30;99.90
35607;DHT22;21729;58.392;15.656;2023-03-11T08:37:22;-2.50;1.00
35607;DHT22;21729;58.392;15.656;2023-03-11T08:39:49;-2.30;1.00
35607;DHT22;21729;58.392;15.656;2023-03-11T08:42:18;-2.20;99.90
35607;DHT22;21729;58.392;15.656;2023-03-11T08:44:45;-2.10;1.00
35607;DHT22;21729;58.392;15.656;2023-03-11T08:47:12;-2.20;99.90
35607;DHT22;21729;58.392;15.656;2023-03-11T08:49:40;-2.00;99.90
35607;DHT22;21729;58.392;15.656;2023-03-11T08:52:07;-2.00;99.90
35607;DHT22;21729;58.392;15.656;2023-03-11T08:54:34;-1.80;1.40
35607;DHT22;21729;58.392;15.656;2023-03-11T08:57:01;-2.00;99.90
35607;DHT22;21729;58.392;15.656;2023-03-11T08:59:31;-1.70;99.90
35607;DHT22;21729;58.392;15.656;2023-03-11T09:02:01;-2.00;99.90
35607;DHT22;21729;58.392;15.656;2023-03-11T09:04:28;-2.00;1.00
35607;DHT22;21729;58.392;15.656;2023-03-11T09:06:55;-2.00;99.90
35607;DHT22;21729;58.392;15.656;2023-03-11T09:09:22;-1.70;1.00
35607;DHT22;21729;58.392;15.656;2023-03-11T09:11:49;-1.50;1.00
35607;DHT22;21729;58.392;15.656;2023-03-11T09:14:16;-1.40;1.00
35607;DHT22;21729;58.392;15.656;2023-03-11T09:16:45;-1.60;1.00
35607;DHT22;21729;58.392;15.656;2023-03-11T09:19:12;-1.60;99.90
35607;DHT22;21729;58.392;15.656;2023-03-11T09:21:39;-1.60;1.00
35607;DHT22;21729;58.392;15.656;2023-03-11T09:24:06;-1.30;1.00
35607;DHT22;21729;58.392;15.656;2023-03-11T09:26:33;-1.00;99.90
35607;DHT22;21729;58.392;15.656;2023-03-11T09:29:01;-1.20;99.90
35607;DHT22;21729;58.392;15.656;2023-03-11T09:31:28;-1.40;99.90
35607;DHT22;21729;58.392;15.656;2023-03-11T09:33:57;-1.20;99.90
35607;DHT22;21729;58.392;15.656;2023-03-11T09:36:24;-1.20;99.90
35607;DHT22;21729;58.392;15.656;2023-03-11T09:38:51;-0.60;99.90
35607;DHT22;21729;58.392;15.656;2023-03-11T09:41:25;-0.10;99.90
35607;DHT22;21729;58.392;15.656;2023-03-11T09:44:06;-0.10;99.90
35607;DHT22;21729;58.392;15.656;2023-03-11T09:50:02;0.00;99.90
35607;DHT22;21729;58.392;15.656;2023-03-11T09:52:39;0.00;99.90
35607;DHT22;21729;58.392;15.656;2023-03-11T09:58:08;-0.40;99.90
35607;DHT22;21729;58.392;15.656;2023-03-11T10:00:36;-0.80;99.90
35607;DHT22;21729;58.392;15.656;2023-03-11T10:03:06;-0.30;99.90
35607;DHT22;21729;58.392;15.656;2023-03-11T10:05:41;0.10;99.90
35607;DHT22;21729;58.392;15.656;2023-03-11T10:08:15;-0.30;99.90
35607;DHT22;21729;58.392;15.656;2023-03-11T10:10:50;-0.20;99.90
35607;DHT22;21729;58.392;15.656;2023-03-11T10:13:28;0.20;99.90
35607;DHT22;21729;58.392;15.656;2023-03-11T10:16:04;0.20;99.90
35607;DHT22;21729;58.392;15.656;2023-03-11T10:18:45;0.10;99.90
35607;DHT22;21729;58.392;15.656;2023-03-11T10:21:29;0.20;99.90
35607;DHT22;21729;58.392;15.656;2023-03-11T10:24:12;0.00;99.90
35607;DHT22;21729;58.392;15.656;2023-03-11T10:26:44;-0.40;99.90
35607;DHT22;21729;58.392;15.656;2023-03-11T10:29:16;-0.50;99.90
35607;DHT22;21729;58.392;15.656;2023-03-11T10:31:47;-0.80;99.90
35607;DHT22;21729;58.392;15.656;2023-03-11T10:34:20;-0.50;99.90
35607;DHT22;21729;58.392;15.656;2023-03-11T10:36:56;-0.80;99.90
35607;DHT22;21729;58.392;15.656;2023-03-11T10:39:25;-0.80;99.90
35607;DHT22;21729;58.392;15.656;2023-03-11T10:41:55;-1.10;99.90
35607;DHT22;21729;58.392;15.656;2023-03-11T10:44:27;-1.10;99.90
35607;DHT22;21729;58.392;15.656;2023-03-11T10:46:55;-1.20;99.90
35607;DHT22;21729;58.392;15.656;2023-03-11T10:49:22;-1.00;99.90
35607;DHT22;21729;58.392;15.656;2023-03-11T10:51:52;-0.70;99.90
35607;DHT22;21729;58.392;15.656;2023-03-11T10:54:23;-0.30;99.90
35607;DHT22;21729;58.392;15.656;2023-03-11T10:56:54;-0.40;99.90
35607;DHT22;21729;58.392;15.656;2023-03-11T10:59:25;-0.30;99.90
35607;DHT22;21729;58.392;15.656;2023-03-11T11:01:57;-0.20;99.90
35607;DHT22;21729;58.392;15.656;2023-03-11T11:04:30;-0.60;99.90
35607;DHT22;21729;58.392;15.656;2023-03-11T11:07:20;-0.60;99.90
35607;DHT22;21729;58.392;15.656;2023-03-11T11:09:47;-0.10;99.90
35607;DHT22;21729;58.392;15.656;2023-03-11T11:12:35;0.30;99.90
35607;DHT22;21729;58.392;15.656;2023-03-11T11:15:02;1.30;99.90
35607;DHT22;21729;58.392;15.656;2023-03-11T11:17:32;1.30;99.90
35607;DHT22;21729;58.392;15.656;2023-03-11T11:20:02;1.20;99.90
35607;DHT22;21729;58.392;15.656;2023-03-11T11:22:46;1.10;99.90
35607;DHT22;21729;58.392;15.656;2023-03-11T11:25:29;0.90;99.90
35607;DHT22;21729;58.392;15.656;2023-03-11T11:27:58;0.90;99.90
35607;DHT22;21729;58.392;15.656;2023-03-11T11:30:27;1.10;99.90
35607;DHT22;21729;58.392;15.656;2023-03-11T11:32:55;1.60;99.90
35607;DHT22;21729;58.392;15.656;2023-03-11T11:35:24;2.00;99.90
35607;DHT22;21729;58.392;15.656;2023-03-11T11:38:00;2.70;99.90
35607;DHT22;21729;58.392;15.656;2023-03-11T11:40:30;2.80;99.90
35607;DHT22;21729;58.392;15.656;2023-03-11T11:43:00;2.50;90.90
35607;DHT22;21729;58.392;15.656;2023-03-11T11:45:34;2.40;64.40
35607;DHT22;21729;58.392;15.656;2023-03-11T11:48:08;1.80;68.40
35607;DHT22;21729;58.392;15.656;2023-03-11T11:50:43;1.70;75.10
35607;DHT22;21729;58.392;15.656;2023-03-11T11:53:24;1.30;88.20
35607;DHT22;21729;58.392;15.656;2023-03-11T11:55:54;1.00;41.70
35607;DHT22;21729;58.392;15.656;2023-03-11T11:58:21;0.80;38.90
35607;DHT22;21729;58.392;15.656;2023-03-11T12:00:57;1.10;49.30
35607;DHT22;21729;58.392;15.656;2023-03-11T12:06:29;0.60;4.80
35607;DHT22;21729;58.392;15.656;2023-03-11T12:09:08;0.60;10.40
35607;DHT22;21729;58.392;15.656;2023-03-11T12:11:41;0.20;30.80
35607;DHT22;21729;58.392;15.656;2023-03-11T12:14:15;0.50;1.00
35607;DHT22;21729;58.392;15.656;2023-03-11T12:16:50;0.70;8.80
35607;DHT22;21729;58.392;15.656;2023-03-11T12:19:32;0.80;12.00
35607;DHT22;21729;58.392;15.656;2023-03-11T12:25:18;0.80;1.00
35607;DHT22;21729;58.392;15.656;2023-03-11T12:27:49;0.90;1.00
35607;DHT22;21729;58.392;15.656;2023-03-11T12:30:20;0.70;1.00
35607;DHT22;21729;58.392;15.656;2023-03-11T12:32:50;0.50;1.00
35607;DHT22;21729;58.392;15.656;2023-03-11T12:35:22;0.50;1.00
35607;DHT22;21729;58.392;15.656;2023-03-11T12:41:00;0.90;1.00
35607;DHT22;21729;58.392;15.656;2023-03-11T12:53:16;0.30;1.00
35607;DHT22;21729;58.392;15.656;2023-03-11T12:55:58;0.30;1.00
35607;DHT22;21729;58.392;15.656;2023-03-11T12:58:52;0.10;1.00
35607;DHT22;21729;58.392;15.656;2023-03-11T13:01:50;0.00;1.00
35607;DHT22;21729;58.392;15.656;2023-03-11T13:04:29;-0.10;1.00
35607;DHT22;21729;58.392;15.656;2023-03-11T13:07:39;-0.20;1.00
35607;DHT22;21729;58.392;15.656;2023-03-11T13:10:17;-0.10;1.00
35607;DHT22;21729;58.392;15.656;2023-03-11T13:12:47;-0.10;1.00
35607;DHT22;21729;58.392;15.656;2023-03-11T13:15:34;-0.20;1.00
35607;DHT22;21729;58.392;15.656;2023-03-11T13:18:13;-0.20;1.00
35607;DHT22;21729;58.392;15.656;2023-03-11T13:20:49;-0.30;1.00
35607;DHT22;21729;58.392;15.656;2023-03-11T13:23:25;-0.40;1.00
35607;DHT22;21729;58.392;15.656;2023-03-11T13:26:11;-0.50;1.00
35607;DHT22;21729;58.392;15.656;2023-03-11T13:29:08;-0.70;1.00
35607;DHT22;21729;58.392;15.656;2023-03-11T13:31:53;-0.70;1.00
35607;DHT22;21729;58.392;15.656;2023-03-11T13:34:28;-0.70;1.00
35607;DHT22;21729;58.392;15.656;2023-03-11T13:37:12;-0.70;1.00
35607;DHT22;21729;58.392;15.656;2023-03-11T13:39:50;-0.80;1.00
35607;DHT22;21729;58.392;15.656;2023-03-11T13:42:26;-0.50;1.00
35607;DHT22;21729;58.392;15.656;2023-03-11T13:44:57;-0.50;1.00
35607;DHT22;21729;58.392;15.656;2023-03-11T13:47:25;-0.80;1.00
35607;DHT22;21729;58.392;15.656;2023-03-11T13:49:57;-0.80;1.00
35607;DHT22;21729;58.392;15.656;2023-03-11T13:52:28;-0.90;1.00
35607;DHT22;21729;58.392;15.656;2023-03-11T13:55:00;-0.90;1.00
35607;DHT22;21729;58.392;15.656;2023-03-11T13:57:30;-0.80;1.00
35607;DHT22;21729;58.392;15.656;2023-03-11T14:00:12;-0.90;1.00
35607;DHT22;21729;58.392;15.656;2023-03-11T14:02:46;-0.90;1.00
35607;DHT22;21729;58.392;15.656;2023-03-11T14:05:18;-0.90;1.00
35607;DHT22;21729;58.392;15.656;2023-03-11T14:07:45;-1.00;1.00
35607;DHT22;21729;58.392;15.656;2023-03-11T14:10:25;-0.80;1.00
35607;DHT22;21729;58.392;15.656;2023-03-11T14:13:05;-0.90;1.00
35607;DHT22;21729;58.392;15.656;2023-03-11T14:15:41;-0.90;1.00
35607;DHT22;21729;58.392;15.656;2023-03-11T14:18:34;-0.90;1.00
35607;DHT22;21729;58.392;15.656;2023-03-11T14:21:04;-0.90;1.00
35607;DHT22;21729;58.392;15.656;2023-03-11T14:23:34;-0.80;1.00
35607;DHT22;21729;58.392;15.656;2023-03-11T14:26:05;-0.90;1.00
35607;DHT22;21729;58.392;15.656;2023-03-11T14:28:36;-0.90;1.00
35607;DHT22;21729;58.392;15.656;2023-03-11T14:31:06;-0.90;1.00
35607;DHT22;21729;58.392;15.656;2023-03-11T14:33:33;-0.90;1.00
35607;DHT22;21729;58.392;15.656;2023-03-11T14:36:03;-0.90;1.00
35607;DHT22;21729;58.392;15.656;2023-03-11T14:38:32;-1.00;1.00
35607;DHT22;21729;58.392;15.656;2023-03-11T14:41:01;-1.00;1.00
35607;DHT22;21729;58.392;15.656;2023-03-11T14:43:32;-1.00;1.00
35607;DHT22;21729;58.392;15.656;2023-03-11T14:46:02;-0.90;1.00
35607;DHT22;21729;58.392;15.656;2023-03-11T14:48:34;-1.00;1.00
35607;DHT22;21729;58.392;15.656;2023-03-11T14:51:04;-1.10;1.90
35607;DHT22;21729;58.392;15.656;2023-03-11T14:53:36;-0.90;5.20
35607;DHT22;21729;58.392;15.656;2023-03-11T14:56:07;-1.20;42.50
35607;DHT22;21729;58.392;15.656;2023-03-11T14:58:40;-1.10;16.10
35607;DHT22;21729;58.392;15.656;2023-03-11T15:01:11;-1.20;27.20
35607;DHT22;21729;58.392;15.656;2023-03-11T15:03:44;-1.20;36.80
35607;DHT22;21729;58.392;15.656;2023-03-11T15:06:15;-1.20;48.60
35607;DHT22;21729;58.392;15.656;2023-03-11T15:08:45;-1.30;55.10
35607;DHT22;21729;58.392;15.656;2023-03-11T15:11:19;-1.40;73.20
35607;DHT22;21729;58.392;15.656;2023-03-11T15:13:47;-1.40;99.90
35607;DHT22;21729;58.392;15.656;2023-03-11T15:16:28;-1.50;95.40
35607;DHT22;21729;58.392;15.656;2023-03-11T15:18:58;-1.50;97.20
35607;DHT22;21729;58.392;15.656;2023-03-11T15:21:26;-1.60;87.10
35607;DHT22;21729;58.392;15.656;2023-03-11T15:23:59;-1.50;64.40
35607;DHT22;21729;58.392;15.656;2023-03-11T15:26:29;-1.60;82.50
35607;DHT22;21729;58.392;15.656;2023-03-11T15:28:58;-1.60;50.20
35607;DHT22;21729;58.392;15.656;2023-03-11T15:31:28;-1.60;45.10
35607;DHT22;21729;58.392;15.656;2023-03-11T15:34:09;-1.70;37.70
35607;DHT22;21729;58.392;15.656;2023-03-11T15:36:38;-1.70;17.70
35607;DHT22;21729;58.392;15.656;2023-03-11T15:39:12;-1.70;23.30
35607;DHT22;21729;58.392;15.656;2023-03-11T15:41:40;-1.70;8.40
35607;DHT22;21729;58.392;15.656;2023-03-11T15:44:21;-1.90;17.70
35607;DHT22;21729;58.392;15.656;2023-03-11T15:46:50;-1.80;10.50
35607;DHT22;21729;58.392;15.656;2023-03-11T15:49:19;-1.90;18.20
35607;DHT22;21729;58.392;15.656;2023-03-11T15:51:46;-2.00;16.40
35607;DHT22;21729;58.392;15.656;2023-03-11T15:54:13;-2.00;1.10
35607;DHT22;21729;58.392;15.656;2023-03-11T15:56:41;-2.00;6.70
35607;DHT22;21729;58.392;15.656;2023-03-11T15:59:13;-2.30;20.80
35607;DHT22;21729;58.392;15.656;2023-03-11T16:01:41;-2.20;1.00
35607;DHT22;21729;58.392;15.656;2023-03-11T16:04:12;-2.30;1.00
35607;DHT22;21729;58.392;15.656;2023-03-11T16:06:42;-2.30;1.00
35607;DHT22;21729;58.392;15.656;2023-03-11T16:09:11;-2.30;1.00